sensor_id;sensor_type;location;lat;lon;timestamp;pressure;altitude;pressure_sealevel;temperature;humidity
65127;BME280;51927;49.080;19.652;2023-02-16T00:00:01;95436.41;;;26.70;33.79
65127;BME280;51927;49.080;19.652;2023-02-16T00:00:06;95435.63;;;26.69;34.15
65127;BME280;51927;49.080;19.652;2023-02-16T00:00:19;95431.34;;;26.68;34.08
65127;BME280;51927;49.080;19.652;2023-02-16T00:00:25;95432.44;;;26.67;33.85
65127;BME280;51927;49.080;19.652;2023-02-16T00:00:31;95431.66;;;26.67;33.95
65127;BME280;51927;49.080;19.652;2023-02-16T00:00:37;95431.66;;;26.67;34.13
65127;BME280;51927;49.080;19.652;2023-02-16T00:00:42;95432.44;;;26.67;33.63
65127;BME280;51927;49.080;19.652;2023-02-16T00:00:48;95426.28;;;26.67;33.98
65127;BME280;51927;49.080;19.652;2023-02-16T00:00:53;95427.06;;;26.67;33.69
65127;BME280;51927;49.080;19.652;2023-02-16T00:00:58;95435.94;;;26.68;33.98
65127;BME280;51927;49.080;19.652;2023-02-16T00:01:12;95433.22;;;26.68;33.78
65127;BME280;51927;49.080;19.652;2023-02-16T00:01:26;95430.56;;;26.68;33.89
65127;BME280;51927;49.080;19.652;2023-02-16T00:01:33;95428.16;;;26.66;33.82
65127;BME280;51927;49.080;19.652;2023-02-16T00:01:39;95435.09;;;26.67;33.97
65127;BME280;51927;49.080;19.652;2023-02-16T00:01:44;95429.72;;;26.67;33.89
65127;BME280;51927;49.080;19.652;2023-02-16T00:01:49;95428.94;;;26.67;33.79
65127;BME280;51927;49.080;19.652;2023-02-16T00:01:55;95433.22;;;26.68;33.70
65127;BME280;51927;49.080;19.652;2023-02-16T00:02:00;95436.72;;;26.68;33.80
65127;BME280;51927;49.080;19.652;2023-02-16T00:02:07;95432.72;;;26.66;33.84
65127;BME280;51927;49.080;19.652;2023-02-16T00:02:13;95431.66;;;26.67;33.80
65127;BME280;51927;49.080;19.652;2023-02-16T00:02:18;95437.00;;;26.67;33.95
65127;BME280;51927;49.080;19.652;2023-02-16T00:02:23;95427.06;;;26.67;33.80
65127;BME280;51927;49.080;19.652;2023-02-16T00:02:28;95430.56;;;26.68;33.58
65127;BME280;51927;49.080;19.652;2023-02-16T00:02:33;95427.06;;;26.67;33.78
65127;BME280;51927;49.080;19.652;2023-02-16T00:02:39;95438.59;;;26.68;33.86
65127;BME280;51927;49.080;19.652;2023-02-16T00:02:44;95433.22;;;26.68;33.90
65127;BME280;51927;49.080;19.652;2023-02-16T00:02:49;95426.28;;;26.67;33.63
65127;BME280;51927;49.080;19.652;2023-02-16T00:02:55;95432.44;;;26.67;34.01
65127;BME280;51927;49.080;19.652;2023-02-16T00:03:00;95432.44;;;26.67;33.97
65127;BME280;51927;49.080;19.652;2023-02-16T00:03:08;95427.88;;;26.68;34.00
65127;BME280;51927;49.080;19.652;2023-02-16T00:03:15;95432.44;;;26.67;33.95
65127;BME280;51927;49.080;19.652;2023-02-16T00:03:21;95429.44;;;26.69;34.01
65127;BME280;51927;49.080;19.652;2023-02-16T00:03:28;95427.88;;;26.68;33.65
65127;BME280;51927;49.080;19.652;2023-02-16T00:03:33;95425.19;;;26.68;34.02
65127;BME280;51927;49.080;19.652;2023-02-16T00:03:38;95425.19;;;26.68;33.88
65127;BME280;51927;49.080;19.652;2023-02-16T00:03:44;95434.03;;;26.68;33.69
65127;BME280;51927;49.080;19.652;2023-02-16T00:03:49;95425.97;;;26.68;33.76
65127;BME280;51927;49.080;19.652;2023-02-16T00:03:55;95430.56;;;26.68;34.02
65127;BME280;51927;49.080;19.652;2023-02-16T00:04:01;95429.44;;;26.69;33.65
65127;BME280;51927;49.080;19.652;2023-02-16T00:04:27;95427.88;;;26.68;33.80
65127;BME280;51927;49.080;19.652;2023-02-16T00:04:33;95426.28;;;26.67;33.79
65127;BME280;51927;49.080;19.652;2023-02-16T00:04:38;95432.44;;;26.67;33.84
65127;BME280;51927;49.080;19.652;2023-02-16T00:04:43;95420.13;;;26.66;33.61
65127;BME280;51927;49.080;19.652;2023-02-16T00:04:48;95438.59;;;26.68;34.06
65127;BME280;51927;49.080;19.652;2023-02-16T00:04:53;95427.88;;;26.68;33.90
65127;BME280;51927;49.080;19.652;2023-02-16T00:04:59;95427.88;;;26.68;33.65
65127;BME280;51927;49.080;19.652;2023-02-16T00:05:11;95429.72;;;26.67;33.79
65127;BME280;51927;49.080;19.652;2023-02-16T00:05:33;95437.50;;;26.69;33.96
65127;BME280;51927;49.080;19.652;2023-02-16T00:05:38;95427.88;;;26.68;33.84
65127;BME280;51927;49.080;19.652;2023-02-16T00:05:44;95427.88;;;26.68;33.79
65127;BME280;51927;49.080;19.652;2023-02-16T00:05:49;95433.22;;;26.68;33.97
65127;BME280;51927;49.080;19.652;2023-02-16T00:05:54;95423.59;;;26.67;33.61
65127;BME280;51927;49.080;19.652;2023-02-16T00:05:59;95433.22;;;26.68;33.98
65127;BME280;51927;49.080;19.652;2023-02-16T00:06:05;95422.50;;;26.68;33.79
65127;BME280;51927;49.080;19.652;2023-02-16T00:06:10;95428.16;;;26.66;33.82
65127;BME280;51927;49.080;19.652;2023-02-16T00:06:19;95422.50;;;26.68;33.77
65127;BME280;51927;49.080;19.652;2023-02-16T00:06:25;95425.50;;;26.66;33.73
65127;BME280;51927;49.080;19.652;2023-02-16T00:06:31;95430.84;;;26.66;33.80
65127;BME280;51927;49.080;19.652;2023-02-16T00:06:36;95426.28;;;26.67;33.79
65127;BME280;51927;49.080;19.652;2023-02-16T00:06:42;95427.38;;;26.66;33.70
65127;BME280;51927;49.080;19.652;2023-02-16T00:06:47;95426.28;;;26.67;34.07
65127;BME280;51927;49.080;19.652;2023-02-16T00:06:53;95420.91;;;26.67;33.79
65127;BME280;51927;49.080;19.652;2023-02-16T00:06:58;95422.81;;;26.66;33.93
65127;BME280;51927;49.080;19.652;2023-02-16T00:07:04;95430.84;;;26.66;34.02
65127;BME280;51927;49.080;19.652;2023-02-16T00:07:09;95424.66;;;26.66;34.02
65127;BME280;51927;49.080;19.652;2023-02-16T00:07:14;95427.06;;;26.67;34.01
65127;BME280;51927;49.080;19.652;2023-02-16T00:07:19;95431.66;;;26.67;33.64
65127;BME280;51927;49.080;19.652;2023-02-16T00:07:24;95432.44;;;26.67;33.79
65127;BME280;51927;49.080;19.652;2023-02-16T00:07:29;95431.66;;;26.67;33.68
65127;BME280;51927;49.080;19.652;2023-02-16T00:07:35;95430.56;;;26.68;34.03
65127;BME280;51927;49.080;19.652;2023-02-16T00:07:40;95430.84;;;26.66;33.85
65127;BME280;51927;49.080;19.652;2023-02-16T00:07:45;95422.50;;;26.68;33.70
65127;BME280;51927;49.080;19.652;2023-02-16T00:07:51;95431.66;;;26.67;34.01
65127;BME280;51927;49.080;19.652;2023-02-16T00:07:56;95426.28;;;26.67;33.80
65127;BME280;51927;49.080;19.652;2023-02-16T00:08:02;95430.56;;;26.68;33.76
65127;BME280;51927;49.080;19.652;2023-02-16T00:08:07;95422.50;;;26.68;33.80
65127;BME280;51927;49.080;19.652;2023-02-16T00:08:12;95429.72;;;26.67;33.78
65127;BME280;51927;49.080;19.652;2023-02-16T00:08:17;95432.44;;;26.67;33.82
65127;BME280;51927;49.080;19.652;2023-02-16T00:08:23;95426.28;;;26.67;33.96
65127;BME280;51927;49.080;19.652;2023-02-16T00:08:28;95428.66;;;26.68;33.83
65127;BME280;51927;49.080;19.652;2023-02-16T00:08:33;95427.06;;;26.67;33.67
65127;BME280;51927;49.080;19.652;2023-02-16T00:08:39;95430.56;;;26.68;34.00
65127;BME280;51927;49.080;19.652;2023-02-16T00:08:47;95425.19;;;26.68;33.49
65127;BME280;51927;49.080;19.652;2023-02-16T00:08:54;95429.72;;;26.67;33.86
65127;BME280;51927;49.080;19.652;2023-02-16T00:08:59;95424.66;;;26.66;33.92
65127;BME280;51927;49.080;19.652;2023-02-16T00:09:04;95428.94;;;26.67;33.85
65127;BME280;51927;49.080;19.652;2023-02-16T00:09:09;95432.44;;;26.67;33.78
65127;BME280;51927;49.080;19.652;2023-02-16T00:09:15;95425.50;;;26.66;33.67
65127;BME280;51927;49.080;19.652;2023-02-16T00:09:21;95431.34;;;26.68;33.82
65127;BME280;51927;49.080;19.652;2023-02-16T00:09:26;95428.16;;;26.66;33.73
65127;BME280;51927;49.080;19.652;2023-02-16T00:09:31;95436.72;;;26.68;33.73
65127;BME280;51927;49.080;19.652;2023-02-16T00:09:36;95432.44;;;26.67;33.92
65127;BME280;51927;49.080;19.652;2023-02-16T00:09:41;95433.22;;;26.68;33.52
65127;BME280;51927;49.080;19.652;2023-02-16T00:09:47;95432.44;;;26.67;33.65
65127;BME280;51927;49.080;19.652;2023-02-16T00:09:52;95428.94;;;26.67;33.95
65127;BME280;51927;49.080;19.652;2023-02-16T00:09:57;95427.06;;;26.67;33.80
65127;BME280;51927;49.080;19.652;2023-02-16T00:10:02;95430.56;;;26.68;33.79
65127;BME280;51927;49.080;19.652;2023-02-16T00:10:08;95432.44;;;26.67;33.75
65127;BME280;51927;49.080;19.652;2023-02-16T00:10:13;95426.28;;;26.67;33.79
65127;BME280;51927;49.080;19.652;2023-02-16T00:10:19;95424.38;;;26.67;33.77
65127;BME280;51927;49.080;19.652;2023-02-16T00:10:25;95425.19;;;26.68;33.76
65127;BME280;51927;49.080;19.652;2023-02-16T00:10:31;95430.03;;;26.66;33.83
65127;BME280;51927;49.080;19.652;2023-02-16T00:10:37;95431.66;;;26.67;33.78
65127;BME280;51927;49.080;19.652;2023-02-16T00:10:42;95428.94;;;26.67;33.66
65127;BME280;51927;49.080;19.652;2023-02-16T00:11:11;95432.44;;;26.67;33.86
65127;BME280;51927;49.080;19.652;2023-02-16T00:11:36;95428.47;;;26.65;33.98
65127;BME280;51927;49.080;19.652;2023-02-16T00:12:00;95432.25;;;26.64;33.80
65127;BME280;51927;49.080;19.652;2023-02-16T00:12:24;95429.84;;;26.62;33.84
65127;BME280;51927;49.080;19.652;2023-02-16T00:12:48;95427.47;;;26.61;33.91
65127;BME280;51927;49.080;19.652;2023-02-16T00:13:20;95432.84;;;26.61;33.69
65127;BME280;51927;49.080;19.652;2023-02-16T00:13:47;95424.31;;;26.59;33.90
65127;BME280;51927;49.080;19.652;2023-02-16T00:13:52;95430.00;;;26.57;33.90
65127;BME280;51927;49.080;19.652;2023-02-16T00:13:58;95434.28;;;26.58;33.90
65127;BME280;51927;49.080;19.652;2023-02-16T00:14:03;95433.16;;;26.59;33.83
65127;BME280;51927;49.080;19.652;2023-02-16T00:14:11;95435.06;;;26.59;33.74
65127;BME280;51927;49.080;19.652;2023-02-16T00:14:16;95435.06;;;26.59;33.89
65127;BME280;51927;49.080;19.652;2023-02-16T00:14:22;95425.91;;;26.60;33.98
65127;BME280;51927;49.080;19.652;2023-02-16T00:14:31;95427.31;;;26.57;34.02
65127;BME280;51927;49.080;19.652;2023-02-16T00:14:37;95430.47;;;26.59;33.79
65127;BME280;51927;49.080;19.652;2023-02-16T00:14:43;95429.69;;;26.59;34.00
65127;BME280;51927;49.080;19.652;2023-02-16T00:14:48;95428.91;;;26.58;33.73
65127;BME280;51927;49.080;19.652;2023-02-16T00:14:53;95428.91;;;26.58;34.07
65127;BME280;51927;49.080;19.652;2023-02-16T00:14:58;95435.06;;;26.59;34.17
65127;BME280;51927;49.080;19.652;2023-02-16T00:15:15;95435.06;;;26.59;33.79
65127;BME280;51927;49.080;19.652;2023-02-16T00:15:21;95420.53;;;26.60;33.74
65127;BME280;51927;49.080;19.652;2023-02-16T00:15:26;95431.28;;;26.60;34.10
65127;BME280;51927;49.080;19.652;2023-02-16T00:15:31;95432.06;;;26.60;33.83
65127;BME280;51927;49.080;19.652;2023-02-16T00:15:36;95428.59;;;26.60;33.81
65127;BME280;51927;49.080;19.652;2023-02-16T00:15:42;95432.84;;;26.61;33.89
65127;BME280;51927;49.080;19.652;2023-02-16T00:15:47;95428.59;;;26.60;33.95
65127;BME280;51927;49.080;19.652;2023-02-16T00:15:52;95425.91;;;26.60;33.68
65127;BME280;51927;49.080;19.652;2023-02-16T00:15:57;95430.16;;;26.61;33.85
65127;BME280;51927;49.080;19.652;2023-02-16T00:16:02;95424.78;;;26.61;33.80
65127;BME280;51927;49.080;19.652;2023-02-16T00:16:15;95429.06;;;26.62;33.63
65127;BME280;51927;49.080;19.652;2023-02-16T00:16:22;95425.56;;;26.61;33.73
65127;BME280;51927;49.080;19.652;2023-02-16T00:16:27;95428.25;;;26.61;33.83
65127;BME280;51927;49.080;19.652;2023-02-16T00:16:33;95427.47;;;26.61;33.91
65127;BME280;51927;49.080;19.652;2023-02-16T00:16:38;95431.75;;;26.62;34.05
65127;BME280;51927;49.080;19.652;2023-02-16T00:16:44;95435.22;;;26.62;33.82
65127;BME280;51927;49.080;19.652;2023-02-16T00:16:49;95436.00;;;26.63;33.69
65127;BME280;51927;49.080;19.652;2023-02-16T00:16:55;95433.31;;;26.63;34.04
65127;BME280;51927;49.080;19.652;2023-02-16T00:17:00;95427.16;;;26.62;33.86
65127;BME280;51927;49.080;19.652;2023-02-16T00:17:06;95433.31;;;26.63;34.00
65127;BME280;51927;49.080;19.652;2023-02-16T00:17:14;95425.56;;;26.61;33.69
65127;BME280;51927;49.080;19.652;2023-02-16T00:17:19;95419.41;;;26.61;34.05
65127;BME280;51927;49.080;19.652;2023-02-16T00:17:24;95429.84;;;26.62;34.00
65127;BME280;51927;49.080;19.652;2023-02-16T00:17:30;95429.06;;;26.62;33.79
65127;BME280;51927;49.080;19.652;2023-02-16T00:17:35;95430.63;;;26.63;33.96
65127;BME280;51927;49.080;19.652;2023-02-16T00:17:40;95425.25;;;26.63;33.85
65127;BME280;51927;49.080;19.652;2023-02-16T00:17:45;95429.06;;;26.62;33.73
65127;BME280;51927;49.080;19.652;2023-02-16T00:17:50;95429.84;;;26.62;33.81
65127;BME280;51927;49.080;19.652;2023-02-16T00:17:57;95431.75;;;26.62;33.76
65127;BME280;51927;49.080;19.652;2023-02-16T00:18:03;95425.25;;;26.63;33.80
65127;BME280;51927;49.080;19.652;2023-02-16T00:18:18;95429.56;;;26.64;33.77
65127;BME280;51927;49.080;19.652;2023-02-16T00:18:23;95429.84;;;26.62;33.97
65127;BME280;51927;49.080;19.652;2023-02-16T00:18:29;95429.84;;;26.62;33.69
65127;BME280;51927;49.080;19.652;2023-02-16T00:18:34;95430.63;;;26.63;33.80
65127;BME280;51927;49.080;19.652;2023-02-16T00:18:39;95430.63;;;26.63;33.93
65127;BME280;51927;49.080;19.652;2023-02-16T00:18:44;95425.25;;;26.63;33.84
65127;BME280;51927;49.080;19.652;2023-02-16T00:18:50;95430.63;;;26.63;33.74
65127;BME280;51927;49.080;19.652;2023-02-16T00:18:55;95431.44;;;26.63;33.84
65127;BME280;51927;49.080;19.652;2023-02-16T00:19:00;95425.25;;;26.63;33.80
65127;BME280;51927;49.080;19.652;2023-02-16T00:19:17;95433.03;;;26.64;33.84
65127;BME280;51927;49.080;19.652;2023-02-16T00:19:26;95430.34;;;26.64;33.80
65127;BME280;51927;49.080;19.652;2023-02-16T00:19:36;95418.00;;;26.63;33.63
65127;BME280;51927;49.080;19.652;2023-02-16T00:19:42;95425.25;;;26.63;33.76
65127;BME280;51927;49.080;19.652;2023-02-16T00:19:47;95424.47;;;26.62;33.90
65127;BME280;51927;49.080;19.652;2023-02-16T00:19:52;95431.44;;;26.63;33.84
65127;BME280;51927;49.080;19.652;2023-02-16T00:19:57;95436.81;;;26.63;33.76
65127;BME280;51927;49.080;19.652;2023-02-16T00:20:04;95427.94;;;26.63;33.72
65127;BME280;51927;49.080;19.652;2023-02-16T00:20:13;95429.84;;;26.62;33.82
65127;BME280;51927;49.080;19.652;2023-02-16T00:20:18;95425.25;;;26.63;33.68
65127;BME280;51927;49.080;19.652;2023-02-16T00:20:23;95430.63;;;26.63;33.87
65127;BME280;51927;49.080;19.652;2023-02-16T00:20:28;95431.44;;;26.63;33.85
65127;BME280;51927;49.080;19.652;2023-02-16T00:20:37;95429.56;;;26.64;33.78
65127;BME280;51927;49.080;19.652;2023-02-16T00:20:42;95429.56;;;26.64;33.61
65127;BME280;51927;49.080;19.652;2023-02-16T00:20:47;95430.34;;;26.64;34.00
65127;BME280;51927;49.080;19.652;2023-02-16T00:20:53;95427.66;;;26.64;33.66
65127;BME280;51927;49.080;19.652;2023-02-16T00:20:58;95428.47;;;26.65;33.89
65127;BME280;51927;49.080;19.652;2023-02-16T00:21:03;95427.94;;;26.63;33.68
65127;BME280;51927;49.080;19.652;2023-02-16T00:21:09;95424.47;;;26.62;33.75
65127;BME280;51927;49.080;19.652;2023-02-16T00:21:14;95424.47;;;26.62;33.76
65127;BME280;51927;49.080;19.652;2023-02-16T00:21:20;95426.06;;;26.63;33.82
65127;BME280;51927;49.080;19.652;2023-02-16T00:21:25;95429.56;;;26.64;33.86
65127;BME280;51927;49.080;19.652;2023-02-16T00:21:31;95422.56;;;26.63;33.82
65127;BME280;51927;49.080;19.652;2023-02-16T00:21:36;95426.06;;;26.63;33.88
65127;BME280;51927;49.080;19.652;2023-02-16T00:21:41;95426.06;;;26.63;33.79
65127;BME280;51927;49.080;19.652;2023-02-16T00:21:46;95427.94;;;26.63;33.63
65127;BME280;51927;49.080;19.652;2023-02-16T00:21:53;95427.94;;;26.63;33.76
65127;BME280;51927;49.080;19.652;2023-02-16T00:21:58;95435.72;;;26.64;33.91
65127;BME280;51927;49.080;19.652;2023-02-16T00:22:04;95423.38;;;26.63;33.72
65127;BME280;51927;49.080;19.652;2023-02-16T00:22:10;95426.88;;;26.64;33.81
65127;BME280;51927;49.080;19.652;2023-02-16T00:22:15;95423.38;;;26.63;33.69
65127;BME280;51927;49.080;19.652;2023-02-16T00:22:20;95426.06;;;26.63;33.79
65127;BME280;51927;49.080;19.652;2023-02-16T00:22:25;95426.88;;;26.64;33.99
65127;BME280;51927;49.080;19.652;2023-02-16T00:22:30;95431.44;;;26.63;33.74
65127;BME280;51927;49.080;19.652;2023-02-16T00:22:36;95424.19;;;26.64;33.78
65127;BME280;51927;49.080;19.652;2023-02-16T00:22:41;95429.56;;;26.64;33.73
65127;BME280;51927;49.080;19.652;2023-02-16T00:22:46;95421.50;;;26.64;33.79
65127;BME280;51927;49.080;19.652;2023-02-16T00:22:51;95425.25;;;26.63;33.78
65127;BME280;51927;49.080;19.652;2023-02-16T00:22:56;95424.19;;;26.64;33.78
65127;BME280;51927;49.080;19.652;2023-02-16T00:23:02;95423.38;;;26.63;33.71
65127;BME280;51927;49.080;19.652;2023-02-16T00:23:07;95427.94;;;26.63;33.59
65127;BME280;51927;49.080;19.652;2023-02-16T00:23:12;95427.66;;;26.64;33.60
65127;BME280;51927;49.080;19.652;2023-02-16T00:23:17;95423.38;;;26.63;33.79
65127;BME280;51927;49.080;19.652;2023-02-16T00:23:23;95420.69;;;26.63;33.84
65127;BME280;51927;49.080;19.652;2023-02-16T00:23:28;95432.25;;;26.64;33.69
65127;BME280;51927;49.080;19.652;2023-02-16T00:23:33;95426.88;;;26.64;33.78
65127;BME280;51927;49.080;19.652;2023-02-16T00:23:38;95424.66;;;26.66;33.84
65127;BME280;51927;49.080;19.652;2023-02-16T00:23:43;95420.41;;;26.65;33.72
65127;BME280;51927;49.080;19.652;2023-02-16T00:23:49;95426.88;;;26.64;33.60
65127;BME280;51927;49.080;19.652;2023-02-16T00:23:54;95426.88;;;26.64;33.72
65127;BME280;51927;49.080;19.652;2023-02-16T00:23:59;95421.50;;;26.64;33.62
65127;BME280;51927;49.080;19.652;2023-02-16T00:24:04;95428.47;;;26.65;33.75
65127;BME280;51927;49.080;19.652;2023-02-16T00:24:10;95427.66;;;26.64;33.62
65127;BME280;51927;49.080;19.652;2023-02-16T00:24:15;95425.78;;;26.65;33.61
65127;BME280;51927;49.080;19.652;2023-02-16T00:24:21;95423.88;;;26.65;33.80
65127;BME280;51927;49.080;19.652;2023-02-16T00:24:27;95420.41;;;26.65;33.93
65127;BME280;51927;49.080;19.652;2023-02-16T00:24:32;95424.19;;;26.64;33.74
65127;BME280;51927;49.080;19.652;2023-02-16T00:24:37;95423.88;;;26.65;33.53
65127;BME280;51927;49.080;19.652;2023-02-16T00:24:43;95423.09;;;26.65;33.89
65127;BME280;51927;49.080;19.652;2023-02-16T00:24:48;95426.56;;;26.65;33.68
65127;BME280;51927;49.080;19.652;2023-02-16T00:24:53;95425.78;;;26.65;33.90
65127;BME280;51927;49.080;19.652;2023-02-16T00:24:59;95421.50;;;26.64;33.86
65127;BME280;51927;49.080;19.652;2023-02-16T00:25:05;95418.84;;;26.64;33.86
65127;BME280;51927;49.080;19.652;2023-02-16T00:25:10;95420.41;;;26.65;33.81
65127;BME280;51927;49.080;19.652;2023-02-16T00:25:15;95423.09;;;26.65;33.55
65127;BME280;51927;49.080;19.652;2023-02-16T00:25:21;95426.88;;;26.64;33.88
65127;BME280;51927;49.080;19.652;2023-02-16T00:25:28;95421.50;;;26.64;33.80
65127;BME280;51927;49.080;19.652;2023-02-16T00:25:34;95427.66;;;26.64;33.75
65127;BME280;51927;49.080;19.652;2023-02-16T00:25:44;95423.38;;;26.63;33.81
65127;BME280;51927;49.080;19.652;2023-02-16T00:25:52;95422.56;;;26.63;33.65
65127;BME280;51927;49.080;19.652;2023-02-16T00:25:58;95424.19;;;26.64;33.78
65127;BME280;51927;49.080;19.652;2023-02-16T00:26:05;95427.66;;;26.64;33.81
65127;BME280;51927;49.080;19.652;2023-02-16T00:26:25;95424.19;;;26.64;33.84
65127;BME280;51927;49.080;19.652;2023-02-16T00:26:32;95424.19;;;26.64;33.55
65127;BME280;51927;49.080;19.652;2023-02-16T00:26:39;95421.50;;;26.64;33.61
65127;BME280;51927;49.080;19.652;2023-02-16T00:26:45;95423.38;;;26.63;33.76
65127;BME280;51927;49.080;19.652;2023-02-16T00:26:50;95425.25;;;26.63;33.61
65127;BME280;51927;49.080;19.652;2023-02-16T00:26:56;95418.84;;;26.64;33.65
65127;BME280;51927;49.080;19.652;2023-02-16T00:27:01;95421.50;;;26.64;33.68
65127;BME280;51927;49.080;19.652;2023-02-16T00:27:08;95421.50;;;26.64;33.79
65127;BME280;51927;49.080;19.652;2023-02-16T00:27:16;95414.50;;;26.63;33.88
65127;BME280;51927;49.080;19.652;2023-02-16T00:27:22;95421.50;;;26.64;33.74
65127;BME280;51927;49.080;19.652;2023-02-16T00:27:27;95426.06;;;26.63;33.90
65127;BME280;51927;49.080;19.652;2023-02-16T00:27:33;95426.06;;;26.63;33.73
65127;BME280;51927;49.080;19.652;2023-02-16T00:27:38;95433.31;;;26.63;33.87
65127;BME280;51927;49.080;19.652;2023-02-16T00:27:43;95431.44;;;26.63;33.68
65127;BME280;51927;49.080;19.652;2023-02-16T00:27:49;95429.56;;;26.64;33.74
65127;BME280;51927;49.080;19.652;2023-02-16T00:27:54;95423.38;;;26.63;33.61
65127;BME280;51927;49.080;19.652;2023-02-16T00:27:59;95427.66;;;26.64;33.61
65127;BME280;51927;49.080;19.652;2023-02-16T00:28:12;95427.66;;;26.64;33.63
65127;BME280;51927;49.080;19.652;2023-02-16T00:28:18;95419.63;;;26.64;33.61
65127;BME280;51927;49.080;19.652;2023-02-16T00:28:24;95427.66;;;26.64;33.49
65127;BME280;51927;49.080;19.652;2023-02-16T00:28:29;95422.28;;;26.64;33.83
65127;BME280;51927;49.080;19.652;2023-02-16T00:28:35;95421.50;;;26.64;33.69
65127;BME280;51927;49.080;19.652;2023-02-16T00:28:40;95433.84;;;26.65;33.71
65127;BME280;51927;49.080;19.652;2023-02-16T00:28:47;95426.88;;;26.64;33.66
65127;BME280;51927;49.080;19.652;2023-02-16T00:28:54;95426.88;;;26.64;33.44
65127;BME280;51927;49.080;19.652;2023-02-16T00:29:02;95431.16;;;26.65;33.68
65127;BME280;51927;49.080;19.652;2023-02-16T00:29:13;95420.41;;;26.65;33.75
65127;BME280;51927;49.080;19.652;2023-02-16T00:29:28;95426.06;;;26.63;33.60
65127;BME280;51927;49.080;19.652;2023-02-16T00:29:35;95425.25;;;26.63;33.65
65127;BME280;51927;49.080;19.652;2023-02-16T00:29:41;95422.56;;;26.63;33.85
65127;BME280;51927;49.080;19.652;2023-02-16T00:29:46;95426.06;;;26.63;33.87
65127;BME280;51927;49.080;19.652;2023-02-16T00:29:51;95424.97;;;26.64;33.91
65127;BME280;51927;49.080;19.652;2023-02-16T00:29:56;95419.88;;;26.63;33.68
65127;BME280;51927;49.080;19.652;2023-02-16T00:30:02;95421.50;;;26.64;33.91
65127;BME280;51927;49.080;19.652;2023-02-16T00:30:16;95426.88;;;26.64;33.86
65127;BME280;51927;49.080;19.652;2023-02-16T00:30:21;95427.94;;;26.63;33.74
65127;BME280;51927;49.080;19.652;2023-02-16T00:30:27;95425.25;;;26.63;33.66
65127;BME280;51927;49.080;19.652;2023-02-16T00:30:32;95423.38;;;26.63;33.66
65127;BME280;51927;49.080;19.652;2023-02-16T00:30:37;95425.25;;;26.63;33.68
65127;BME280;51927;49.080;19.652;2023-02-16T00:30:43;95424.19;;;26.64;33.69
65127;BME280;51927;49.080;19.652;2023-02-16T00:30:48;95430.63;;;26.63;33.75
65127;BME280;51927;49.080;19.652;2023-02-16T00:30:54;95429.06;;;26.62;33.86
65127;BME280;51927;49.080;19.652;2023-02-16T00:30:59;95421.00;;;26.62;33.81
65127;BME280;51927;49.080;19.652;2023-02-16T00:31:04;95427.94;;;26.63;33.78
65127;BME280;51927;49.080;19.652;2023-02-16T00:31:20;95427.94;;;26.63;33.49
65127;BME280;51927;49.080;19.652;2023-02-16T00:31:26;95425.56;;;26.61;33.60
65127;BME280;51927;49.080;19.652;2023-02-16T00:31:32;95429.06;;;26.62;33.54
65127;BME280;51927;49.080;19.652;2023-02-16T00:31:37;95423.69;;;26.62;33.54
65127;BME280;51927;49.080;19.652;2023-02-16T00:31:43;95428.25;;;26.61;33.93
65127;BME280;51927;49.080;19.652;2023-02-16T00:31:48;95422.88;;;26.61;33.69
65127;BME280;51927;49.080;19.652;2023-02-16T00:31:53;95425.25;;;26.63;33.71
65127;BME280;51927;49.080;19.652;2023-02-16T00:31:59;95429.06;;;26.62;34.04
65127;BME280;51927;49.080;19.652;2023-02-16T00:32:05;95425.56;;;26.61;33.68
65127;BME280;51927;49.080;19.652;2023-02-16T00:32:10;95422.09;;;26.61;33.72
65127;BME280;51927;49.080;19.652;2023-02-16T00:32:16;95429.06;;;26.62;33.69
65127;BME280;51927;49.080;19.652;2023-02-16T00:32:21;95425.25;;;26.63;33.72
65127;BME280;51927;49.080;19.652;2023-02-16T00:32:26;95422.88;;;26.61;33.51
65127;BME280;51927;49.080;19.652;2023-02-16T00:32:31;95425.25;;;26.63;33.69
65127;BME280;51927;49.080;19.652;2023-02-16T00:32:36;95427.94;;;26.63;33.80
65127;BME280;51927;49.080;19.652;2023-02-16T00:32:42;95427.94;;;26.63;33.63
65127;BME280;51927;49.080;19.652;2023-02-16T00:32:47;95426.38;;;26.62;33.68
65127;BME280;51927;49.080;19.652;2023-02-16T00:32:52;95426.38;;;26.62;33.76
65127;BME280;51927;49.080;19.652;2023-02-16T00:32:57;95427.94;;;26.63;33.74
65127;BME280;51927;49.080;19.652;2023-02-16T00:33:04;95424.47;;;26.62;33.86
65127;BME280;51927;49.080;19.652;2023-02-16T00:33:19;95426.38;;;26.62;33.53
65127;BME280;51927;49.080;19.652;2023-02-16T00:33:24;95427.16;;;26.62;33.50
65127;BME280;51927;49.080;19.652;2023-02-16T00:33:29;95427.94;;;26.63;33.69
65127;BME280;51927;49.080;19.652;2023-02-16T00:33:35;95424.47;;;26.62;33.86
65127;BME280;51927;49.080;19.652;2023-02-16T00:33:40;95432.53;;;26.62;33.91
65127;BME280;51927;49.080;19.652;2023-02-16T00:33:45;95432.53;;;26.62;33.68
65127;BME280;51927;49.080;19.652;2023-02-16T00:33:50;95427.94;;;26.63;33.84
65127;BME280;51927;49.080;19.652;2023-02-16T00:33:56;95424.47;;;26.62;33.84
65127;BME280;51927;49.080;19.652;2023-02-16T00:34:06;95428.75;;;26.63;33.76
65127;BME280;51927;49.080;19.652;2023-02-16T00:34:36;95422.56;;;26.63;33.74
65127;BME280;51927;49.080;19.652;2023-02-16T00:34:42;95424.19;;;26.64;33.88
65127;BME280;51927;49.080;19.652;2023-02-16T00:34:47;95427.66;;;26.64;33.74
65127;BME280;51927;49.080;19.652;2023-02-16T00:34:52;95428.75;;;26.63;33.54
65127;BME280;51927;49.080;19.652;2023-02-16T00:34:57;95431.44;;;26.63;33.68
65127;BME280;51927;49.080;19.652;2023-02-16T00:35:04;95431.16;;;26.65;33.86
65127;BME280;51927;49.080;19.652;2023-02-16T00:35:13;95428.47;;;26.65;33.53